Time;durP1;ratioP1;P1;durP2;ratioP2;P2;SDS_P1;SDS_P2;PMS_P1;PMS_P2;Temp;Humidity;BMP_temperature;BMP_pressure;BME280_temperature;BME280_humidity;BME280_pressure;Samples;Min_cycle;Max_cycle;Signal;HPM_P1;HPM_P2
2021/12/24 00:01:09;;;;;;;30.20;24.88;;;;;;;;;;5099951;28;25058;-55
2021/12/24 00:03:34;;;;;;;32.67;26.33;;;;;;;;;;5095938;28;24533;-54
2021/12/24 00:06:00;;;;;;;29.40;25.42;;;;;;;;;;5100731;28;24943;-55
2021/12/24 00:08:25;;;;;;;29.05;24.33;;;;;;;;;;5095163;28;25025;-55
2021/12/24 00:10:58;;;;;;;31.23;25.07;;;;;;;;;;5101384;28;24769;-55
2021/12/24 00:13:24;;;;;;;27.27;23.48;;;;;;;;;;5097238;28;25029;-54
2021/12/24 00:18:40;;;;;;;26.27;22.03;;;;;;;;;;5097533;28;24505;-55
2021/12/24 00:35:10;;;;;;;18.65;16.70;;;;;;;;;;5105010;28;24974;-55
2021/12/24 00:37:36;;;;;;;19.13;17.13;;;;;;;;;;5102022;28;24429;-55
2021/12/24 00:40:11;;;;;;;23.95;20.85;;;;;;;;;;5105163;28;24428;-56
2021/12/24 00:42:37;;;;;;;21.10;18.52;;;;;;;;;;5099391;28;24470;-54
2021/12/24 00:45:03;;;;;;;20.42;17.90;;;;;;;;;;5100227;28;24414;-55
2021/12/24 00:47:28;;;;;;;18.85;16.83;;;;;;;;;;5102410;28;24833;-56
2021/12/24 00:49:54;;;;;;;19.58;17.48;;;;;;;;;;5098704;28;24970;-56
2021/12/24 00:55:03;;;;;;;18.52;15.23;;;;;;;;;;5100970;28;24514;-55
2021/12/24 00:57:35;;;;;;;21.20;17.90;;;;;;;;;;5101211;28;24800;-55
2021/12/24 01:00:00;;;;;;;19.90;17.70;;;;;;;;;;5104584;28;24405;-55
2021/12/24 01:02:25;;;;;;;16.17;14.47;;;;;;;;;;5099546;28;25033;-55
2021/12/24 01:04:51;;;;;;;17.87;15.70;;;;;;;;;;5099725;28;25196;-55
2021/12/24 01:07:16;;;;;;;17.93;16.03;;;;;;;;;;5098110;28;24453;-55
2021/12/24 01:09:41;;;;;;;18.47;16.20;;;;;;;;;;5102706;28;24794;-55
2021/12/24 01:12:07;;;;;;;17.47;15.57;;;;;;;;;;5104595;28;24406;-54
2021/12/24 01:14:32;;;;;;;18.17;15.90;;;;;;;;;;5099561;28;24410;-54
2021/12/24 01:17:27;;;;;;;17.03;15.00;;;;;;;;;;5098817;28;24425;-54
2021/12/24 01:19:57;;;;;;;16.17;14.48;;;;;;;;;;5097773;28;24851;-54
2021/12/24 01:22:59;;;;;;;16.95;15.15;;;;;;;;;;5104429;28;24416;-54
2021/12/24 01:28:12;;;;;;;21.60;19.30;;;;;;;;;;5098133;28;24574;-55
2021/12/24 01:42:40;;;;;;;28.05;23.50;;;;;;;;;;5103765;28;24997;-54
2021/12/24 01:44:05;;;;;;;26.40;22.95;;;;;;;;;;5093886;28;24422;-55
2021/12/24 01:46:30;;;;;;;27.98;23.08;;;;;;;;;;5098783;28;24775;-55
2021/12/24 01:48:56;;;;;;;28.58;23.95;;;;;;;;;;5100566;28;25024;-54
2021/12/24 01:51:21;;;;;;;28.80;23.48;;;;;;;;;;5103581;28;24456;-54
2021/12/24 01:53:46;;;;;;;32.35;26.48;;;;;;;;;;5100867;28;24429;-54
2021/12/24 01:56:11;;;;;;;24.02;20.80;;;;;;;;;;5099206;28;24977;-54
2021/12/24 01:58:36;;;;;;;18.40;15.43;;;;;;;;;;5095290;28;24531;-54
2021/12/24 02:01:02;;;;;;;12.27;10.90;;;;;;;;;;5098342;28;24459;-54
2021/12/24 02:03:27;;;;;;;10.93;9.82;;;;;;;;;;5102528;28;24502;-54
2021/12/24 02:05:53;;;;;;;10.30;9.20;;;;;;;;;;5101701;28;24426;-55
2021/12/24 02:08:18;;;;;;;9.50;8.60;;;;;;;;;;5099300;28;24885;-55
2021/12/24 02:10:43;;;;;;;9.10;8.20;;;;;;;;;;5095494;28;25163;-54
2021/12/24 02:13:10;;;;;;;9.90;8.90;;;;;;;;;;5100987;28;24406;-55
2021/12/24 02:16:06;;;;;;;9.60;8.70;;;;;;;;;;5100019;28;24425;-57
2021/12/24 02:28:13;;;;;;;8.90;8.00;;;;;;;;;;5101476;28;24505;-56
2021/12/24 02:29:30;;;;;;;7.60;6.90;;;;;;;;;;5094921;28;24985;-56
2021/12/24 02:31:55;;;;;;;7.00;6.40;;;;;;;;;;5101901;28;24429;-56
2021/12/24 02:34:20;;;;;;;7.55;6.85;;;;;;;;;;5102777;28;24916;-55
2021/12/24 02:36:45;;;;;;;7.30;6.60;;;;;;;;;;5101173;28;24425;-55
2021/12/24 02:39:10;;;;;;;7.50;6.80;;;;;;;;;;5098955;28;24482;-55
2021/12/24 02:41:35;;;;;;;7.30;6.60;;;;;;;;;;5098994;28;24995;-55
2021/12/24 02:44:00;;;;;;;6.90;6.10;;;;;;;;;;5100024;28;24421;-56
2021/12/24 02:46:54;;;;;;;6.40;5.80;;;;;;;;;;5101199;28;25023;-55
2021/12/24 02:53:55;;;;;;;6.70;6.10;;;;;;;;;;5101661;28;24446;-55
2021/12/24 02:54:48;;;;;;;6.20;5.60;;;;;;;;;;5092597;28;25043;-56
2021/12/24 02:57:16;;;;;;;6.40;5.90;;;;;;;;;;5100243;28;24425;-57
2021/12/24 02:59:48;;;;;;;5.63;5.13;;;;;;;;;;5101620;28;24410;-56
2021/12/24 03:02:13;;;;;;;5.68;5.18;;;;;;;;;;5096828;28;24430;-55
2021/12/24 03:04:38;;;;;;;6.10;5.60;;;;;;;;;;5099999;28;24474;-55
2021/12/24 03:07:03;;;;;;;5.90;5.40;;;;;;;;;;5081311;28;24418;-56
2021/12/24 03:09:28;;;;;;;5.40;4.90;;;;;;;;;;5098220;28;24436;-56
2021/12/24 03:11:54;;;;;;;5.37;4.90;;;;;;;;;;5097787;28;24456;-55
2021/12/24 03:14:19;;;;;;;5.20;4.60;;;;;;;;;;5100382;28;24970;-55
2021/12/24 03:16:50;;;;;;;5.00;4.60;;;;;;;;;;5102792;28;24414;-55
2021/12/24 03:19:15;;;;;;;5.40;4.97;;;;;;;;;;5101943;28;24824;-54
2021/12/24 03:21:55;;;;;;;5.28;4.78;;;;;;;;;;5098482;28;24962;-55
2021/12/24 03:26:46;;;;;;;4.33;4.03;;;;;;;;;;5099473;28;24509;-56
2021/12/24 03:29:12;;;;;;;4.60;4.20;;;;;;;;;;5101691;28;24421;-55
2021/12/24 03:31:38;;;;;;;4.88;4.47;;;;;;;;;;5100305;28;25022;-56
2021/12/24 03:34:04;;;;;;;4.27;3.87;;;;;;;;;;5099595;28;24492;-56
2021/12/24 03:36:29;;;;;;;3.95;3.65;;;;;;;;;;5093034;28;24610;-56
2021/12/24 03:38:55;;;;;;;4.30;4.00;;;;;;;;;;5097992;28;24558;-56
2021/12/24 03:41:21;;;;;;;4.13;3.83;;;;;;;;;;5100749;28;24477;-57
2021/12/24 03:43:46;;;;;;;4.25;3.40;;;;;;;;;;5099829;28;25001;-55
2021/12/24 03:46:16;;;;;;;4.20;3.90;;;;;;;;;;5097236;28;25050;-56
2021/12/24 03:48:55;;;;;;;3.65;3.35;;;;;;;;;;5095148;28;24466;-55
2021/12/24 03:51:30;;;;;;;3.65;3.35;;;;;;;;;;5097797;28;24436;-55
2021/12/24 03:56:40;;;;;;;3.50;3.20;;;;;;;;;;5092829;28;24425;-56
2021/12/24 03:59:06;;;;;;;3.30;3.00;;;;;;;;;;5094420;28;24486;-56
2021/12/24 04:01:32;;;;;;;3.25;3.00;;;;;;;;;;5097803;28;24963;-56
2021/12/24 04:03:57;;;;;;;3.38;3.08;;;;;;;;;;5098405;28;24443;-56
2021/12/24 04:06:22;;;;;;;3.27;3.07;;;;;;;;;;5105315;28;24479;-56
2021/12/24 04:08:47;;;;;;;3.10;2.80;;;;;;;;;;5103352;28;25006;-55
2021/12/24 04:11:12;;;;;;;2.37;2.27;;;;;;;;;;5100147;28;24718;-55
2021/12/24 04:13:38;;;;;;;3.05;2.80;;;;;;;;;;5101446;28;25062;-55
2021/12/24 04:16:04;;;;;;;3.10;2.40;;;;;;;;;;5105469;28;24495;-56
2021/12/24 04:26:25;;;;;;;2.40;2.20;;;;;;;;;;5103436;28;24448;-56
2021/12/24 04:28:51;;;;;;;2.60;2.40;;;;;;;;;;5101469;28;24418;-56
2021/12/24 04:31:18;;;;;;;2.50;2.30;;;;;;;;;;5105377;28;24429;-56
2021/12/24 04:33:47;;;;;;;2.30;2.20;;;;;;;;;;5098873;28;24441;-56
2021/12/24 04:36:40;;;;;;;1.90;1.80;;;;;;;;;;5102409;28;24501;-56
2021/12/24 05:03:30;;;;;;;1.50;1.40;;;;;;;;;;5104581;28;24459;-55
2021/12/24 05:06:10;;;;;;;1.50;1.40;;;;;;;;;;5104536;28;24783;-55
2021/12/24 05:08:42;;;;;;;1.50;1.40;;;;;;;;;;5100437;28;24524;-56
2021/12/24 05:11:10;;;;;;;1.90;1.70;;;;;;;;;;5097013;28;24528;-56
2021/12/24 05:13:36;;;;;;;1.77;1.67;;;;;;;;;;5102254;28;24970;-56
2021/12/24 05:16:12;;;;;;;2.00;1.90;;;;;;;;;;5104219;28;24445;-57
2021/12/24 05:19:04;;;;;;;2.40;2.20;;;;;;;;;;5103357;28;24432;-56
2021/12/24 05:21:42;;;;;;;2.33;2.20;;;;;;;;;;5101544;28;24407;-55
2021/12/24 05:24:12;;;;;;;2.50;2.30;;;;;;;;;;5093852;28;24436;-56
2021/12/24 05:26:38;;;;;;;2.50;2.40;;;;;;;;;;5100548;28;24448;-57
2021/12/24 05:29:03;;;;;;;3.40;3.10;;;;;;;;;;5103768;28;24433;-56
2021/12/24 05:31:29;;;;;;;2.70;2.50;;;;;;;;;;5097188;28;24429;-56
2021/12/24 05:33:55;;;;;;;3.17;2.97;;;;;;;;;;5102549;28;24422;-55
2021/12/24 05:36:20;;;;;;;2.83;2.63;;;;;;;;;;5088651;28;24567;-56
2021/12/24 05:38:46;;;;;;;3.47;3.27;;;;;;;;;;5098454;28;24417;-55
2021/12/24 05:41:11;;;;;;;3.35;3.15;;;;;;;;;;5099017;28;24475;-55
2021/12/24 05:43:36;;;;;;;3.27;3.07;;;;;;;;;;5103352;28;24425;-55
2021/12/24 05:46:02;;;;;;;4.20;3.90;;;;;;;;;;5104223;28;24416;-55
2021/12/24 05:48:27;;;;;;;4.43;4.03;;;;;;;;;;5099352;28;24434;-56
2021/12/24 05:50:52;;;;;;;4.53;4.13;;;;;;;;;;5099985;28;24440;-56
2021/12/24 05:53:17;;;;;;;5.00;4.60;;;;;;;;;;5098981;28;24505;-56
2021/12/24 05:55:43;;;;;;;5.27;4.80;;;;;;;;;;5104252;28;25079;-55
2021/12/24 05:58:08;;;;;;;5.88;5.38;;;;;;;;;;5103283;28;25008;-55
2021/12/24 06:00:38;;;;;;;4.97;4.57;;;;;;;;;;5100808;28;24960;-55
2021/12/24 06:03:03;;;;;;;6.50;5.90;;;;;;;;;;5088254;28;24440;-55
2021/12/24 06:05:29;;;;;;;5.90;5.40;;;;;;;;;;5100374;28;24497;-56
2021/12/24 06:07:54;;;;;;;5.57;5.17;;;;;;;;;;5096013;28;24481;-55
2021/12/24 06:10:19;;;;;;;6.40;5.75;;;;;;;;;;5104118;28;24963;-55
2021/12/24 06:12:44;;;;;;;5.22;4.82;;;;;;;;;;5094991;28;24426;-54
2021/12/24 06:15:09;;;;;;;5.85;5.35;;;;;;;;;;5097713;28;24482;-55
2021/12/24 06:17:37;;;;;;;5.70;5.20;;;;;;;;;;5102959;28;25003;-56
2021/12/24 06:20:04;;;;;;;6.55;6.05;;;;;;;;;;5103813;28;24517;-56
2021/12/24 06:22:29;;;;;;;5.90;5.40;;;;;;;;;;5102483;28;24500;-55
2021/12/24 06:24:54;;;;;;;5.60;5.20;;;;;;;;;;5100540;28;24425;-55
2021/12/24 06:27:19;;;;;;;6.07;5.57;;;;;;;;;;5097000;28;24505;-56
2021/12/24 06:29:44;;;;;;;6.00;5.50;;;;;;;;;;5097659;28;24767;-54
2021/12/24 06:32:09;;;;;;;5.20;4.70;;;;;;;;;;5101340;28;24522;-55
2021/12/24 06:34:35;;;;;;;6.00;5.50;;;;;;;;;;5098468;28;24556;-55
2021/12/24 06:37:00;;;;;;;6.60;6.00;;;;;;;;;;5103968;28;24971;-55
2021/12/24 06:39:25;;;;;;;5.80;5.30;;;;;;;;;;5098847;28;24977;-55
2021/12/24 06:41:50;;;;;;;7.07;6.47;;;;;;;;;;5100967;28;24417;-55
2021/12/24 06:44:15;;;;;;;6.82;6.30;;;;;;;;;;5104117;28;24552;-54
2021/12/24 06:46:41;;;;;;;6.77;6.17;;;;;;;;;;5101578;28;24426;-55
2021/12/24 06:49:07;;;;;;;6.43;5.90;;;;;;;;;;5100159;28;24418;-55
2021/12/24 06:51:32;;;;;;;6.20;5.70;;;;;;;;;;5099844;28;24425;-55
2021/12/24 06:53:58;;;;;;;6.70;6.10;;;;;;;;;;5097518;28;24407;-55
2021/12/24 06:56:23;;;;;;;6.63;6.03;;;;;;;;;;5103121;28;24951;-55
2021/12/24 06:58:48;;;;;;;6.95;6.35;;;;;;;;;;5100786;28;24939;-55
2021/12/24 07:01:13;;;;;;;7.83;7.13;;;;;;;;;;5100559;28;24460;-55
2021/12/24 07:03:39;;;;;;;8.07;7.37;;;;;;;;;;5097513;28;24483;-55
2021/12/24 07:06:05;;;;;;;7.50;6.80;;;;;;;;;;5099555;28;24748;-56
2021/12/24 07:08:30;;;;;;;7.53;6.82;;;;;;;;;;5098779;28;24403;-57
2021/12/24 07:10:56;;;;;;;7.20;6.60;;;;;;;;;;5102279;28;24479;-55
2021/12/24 07:13:21;;;;;;;6.90;6.30;;;;;;;;;;5102465;28;24406;-56
2021/12/24 07:15:46;;;;;;;8.20;7.50;;;;;;;;;;5096726;28;24541;-57
2021/12/24 07:18:11;;;;;;;8.03;7.33;;;;;;;;;;5097589;28;24466;-56
2021/12/24 07:20:36;;;;;;;7.40;6.80;;;;;;;;;;5097841;28;24504;-56
2021/12/24 07:23:02;;;;;;;6.90;6.30;;;;;;;;;;5102800;28;24990;-56
2021/12/24 07:25:27;;;;;;;6.90;6.30;;;;;;;;;;5102841;28;24435;-56
2021/12/24 07:27:52;;;;;;;7.00;6.40;;;;;;;;;;5098336;28;24974;-55
2021/12/24 07:30:18;;;;;;;7.50;6.80;;;;;;;;;;5096079;28;24457;-56
2021/12/24 07:32:44;;;;;;;6.55;6.05;;;;;;;;;;5102554;28;24513;-55
2021/12/24 07:35:10;;;;;;;6.88;6.28;;;;;;;;;;5100805;28;25013;-56
2021/12/24 07:37:35;;;;;;;7.22;6.63;;;;;;;;;;5100014;28;24410;-55
2021/12/24 07:40:02;;;;;;;7.73;6.93;;;;;;;;;;5094497;28;24505;-56
2021/12/24 07:42:28;;;;;;;7.38;6.68;;;;;;;;;;5100906;28;24930;-55
2021/12/24 07:44:53;;;;;;;7.07;6.47;;;;;;;;;;5099722;28;24451;-56
2021/12/24 07:47:27;;;;;;;6.87;6.27;;;;;;;;;;5102268;28;24410;-55
2021/12/24 07:50:00;;;;;;;7.20;6.50;;;;;;;;;;5096401;28;24502;-56
2021/12/24 07:52:26;;;;;;;7.47;6.85;;;;;;;;;;5094450;28;24474;-53
2021/12/24 07:54:54;;;;;;;6.20;5.70;;;;;;;;;;5095403;28;24429;-55
2021/12/24 07:57:19;;;;;;;5.53;5.13;;;;;;;;;;5096983;28;25089;-55
2021/12/24 07:59:44;;;;;;;6.00;5.50;;;;;;;;;;5099200;28;24425;-55
2021/12/24 08:02:11;;;;;;;6.50;5.90;;;;;;;;;;5101083;28;24532;-55
2021/12/24 08:04:36;;;;;;;6.60;6.00;;;;;;;;;;5096715;28;24422;-56
2021/12/24 08:07:02;;;;;;;6.40;5.90;;;;;;;;;;5100591;28;24801;-56
2021/12/24 08:09:27;;;;;;;5.75;5.25;;;;;;;;;;5098442;28;24425;-55
2021/12/24 08:11:52;;;;;;;5.70;5.20;;;;;;;;;;5086306;28;24466;-56
2021/12/24 08:14:18;;;;;;;5.67;5.17;;;;;;;;;;5091545;28;25008;-55
2021/12/24 08:16:44;;;;;;;6.17;5.67;;;;;;;;;;5094822;28;24881;-55
2021/12/24 08:19:09;;;;;;;5.93;5.43;;;;;;;;;;5097031;28;24442;-55
2021/12/24 08:21:34;;;;;;;5.90;5.40;;;;;;;;;;5098633;28;24418;-55
2021/12/24 08:24:00;;;;;;;5.13;4.72;;;;;;;;;;5102456;28;24542;-55
2021/12/24 08:26:25;;;;;;;5.10;4.70;;;;;;;;;;5100153;28;24562;-56
2021/12/24 08:28:50;;;;;;;5.30;4.90;;;;;;;;;;5102299;28;24397;-56
2021/12/24 08:31:16;;;;;;;5.40;4.90;;;;;;;;;;5096700;28;24903;-56
2021/12/24 08:33:41;;;;;;;6.53;5.93;;;;;;;;;;5100163;28;25207;-56
2021/12/24 08:36:07;;;;;;;5.13;4.73;;;;;;;;;;5101465;28;24445;-56
2021/12/24 08:38:33;;;;;;;5.15;4.70;;;;;;;;;;5100202;28;24415;-55
2021/12/24 08:40:58;;;;;;;5.30;4.80;;;;;;;;;;5102224;28;24460;-56
2021/12/24 08:43:23;;;;;;;5.37;4.87;;;;;;;;;;5099318;28;24969;-55
2021/12/24 08:45:49;;;;;;;4.70;4.40;;;;;;;;;;5098085;28;25121;-55
2021/12/24 08:48:14;;;;;;;4.30;4.00;;;;;;;;;;5099785;28;24413;-55
2021/12/24 08:50:39;;;;;;;4.43;4.13;;;;;;;;;;5099923;28;24450;-55
2021/12/24 08:53:06;;;;;;;4.20;3.80;;;;;;;;;;5103746;28;25078;-56
2021/12/24 08:55:31;;;;;;;4.25;3.95;;;;;;;;;;5105756;28;24550;-55
2021/12/24 08:57:56;;;;;;;4.50;4.10;;;;;;;;;;5102152;28;24935;-55
2021/12/24 09:00:23;;;;;;;4.25;3.85;;;;;;;;;;5101599;28;24413;-56
2021/12/24 09:02:48;;;;;;;4.30;4.00;;;;;;;;;;5105064;28;24498;-55
2021/12/24 09:05:14;;;;;;;3.90;3.60;;;;;;;;;;5104997;28;24857;-55
2021/12/24 09:07:40;;;;;;;4.63;4.22;;;;;;;;;;5103856;28;24394;-57
2021/12/24 09:10:06;;;;;;;3.60;3.30;;;;;;;;;;5105078;28;24431;-56
2021/12/24 09:12:31;;;;;;;3.80;3.50;;;;;;;;;;5094644;28;24751;-54
2021/12/24 09:14:57;;;;;;;4.20;3.80;;;;;;;;;;5101362;28;25221;-55
2021/12/24 09:17:22;;;;;;;4.80;4.30;;;;;;;;;;5101787;28;24393;-54
2021/12/24 09:19:50;;;;;;;3.70;3.40;;;;;;;;;;5102815;28;24414;-54
2021/12/24 09:22:28;;;;;;;3.50;3.20;;;;;;;;;;5102063;28;24444;-55
2021/12/24 09:24:55;;;;;;;3.50;3.30;;;;;;;;;;5097506;28;24394;-55
2021/12/24 09:27:20;;;;;;;3.80;3.50;;;;;;;;;;5101639;28;24422;-55
2021/12/24 09:29:45;;;;;;;3.95;3.55;;;;;;;;;;5100398;28;24429;-54
2021/12/24 09:32:11;;;;;;;3.80;3.50;;;;;;;;;;5101067;28;24430;-55
2021/12/24 09:34:36;;;;;;;4.10;3.80;;;;;;;;;;5077711;28;24394;-55
2021/12/24 09:37:02;;;;;;;4.20;3.90;;;;;;;;;;5077092;28;24851;-55
2021/12/24 09:39:27;;;;;;;3.90;3.50;;;;;;;;;;5100357;28;24414;-55
2021/12/24 09:41:52;;;;;;;3.60;3.30;;;;;;;;;;5099613;28;24513;-55
2021/12/24 09:44:18;;;;;;;3.80;3.30;;;;;;;;;;5097424;28;24430;-56
2021/12/24 09:46:43;;;;;;;3.17;2.97;;;;;;;;;;5099478;28;24410;-55
2021/12/24 09:49:12;;;;;;;3.20;2.90;;;;;;;;;;5100909;28;25007;-55
2021/12/24 09:51:41;;;;;;;3.30;3.10;;;;;;;;;;5099599;28;24440;-55
2021/12/24 09:54:11;;;;;;;3.10;2.90;;;;;;;;;;5101150;28;24954;-56
2021/12/24 09:56:36;;;;;;;3.40;3.10;;;;;;;;;;5098763;28;25056;-55
2021/12/24 09:59:01;;;;;;;3.60;3.30;;;;;;;;;;5098916;28;24394;-55
2021/12/24 10:01:32;;;;;;;3.30;3.00;;;;;;;;;;5097145;28;25034;-55
2021/12/24 10:04:02;;;;;;;3.10;2.90;;;;;;;;;;5100158;28;24409;-55
2021/12/24 10:06:27;;;;;;;3.30;3.10;;;;;;;;;;5098855;28;25125;-55
2021/12/24 10:09:00;;;;;;;2.80;2.60;;;;;;;;;;5098415;28;24600;-56
2021/12/24 10:11:28;;;;;;;3.03;2.83;;;;;;;;;;5096675;28;25249;-56
2021/12/24 10:13:56;;;;;;;3.20;3.00;;;;;;;;;;5100745;28;24509;-56
2021/12/24 10:16:25;;;;;;;3.00;2.80;;;;;;;;;;5082257;28;24535;-56
2021/12/24 10:18:54;;;;;;;3.17;2.97;;;;;;;;;;5098858;28;24483;-56
2021/12/24 10:21:19;;;;;;;2.90;2.70;;;;;;;;;;5097350;28;24393;-56
2021/12/24 10:23:49;;;;;;;2.60;2.50;;;;;;;;;;5096014;28;24470;-55
2021/12/24 10:26:18;;;;;;;2.80;2.60;;;;;;;;;;5100132;28;25104;-56
2021/12/24 10:29:09;;;;;;;2.95;2.75;;;;;;;;;;5101000;28;24638;-55
2021/12/24 10:31:43;;;;;;;3.25;3.05;;;;;;;;;;5093299;28;24792;-56
2021/12/24 10:34:25;;;;;;;3.00;2.80;;;;;;;;;;5094458;28;25127;-56
2021/12/24 10:36:52;;;;;;;3.10;2.90;;;;;;;;;;5095946;28;24821;-55
2021/12/24 10:39:17;;;;;;;3.50;3.20;;;;;;;;;;5099790;28;24471;-56
2021/12/24 10:41:44;;;;;;;3.47;3.17;;;;;;;;;;5098044;28;24959;-56
2021/12/24 10:44:16;;;;;;;3.25;3.00;;;;;;;;;;5100342;28;24417;-56
2021/12/24 10:46:55;;;;;;;3.13;2.93;;;;;;;;;;5095841;28;25216;-55
2021/12/24 10:49:34;;;;;;;3.30;3.00;;;;;;;;;;5095328;28;24767;-55
2021/12/24 10:52:12;;;;;;;3.10;2.80;;;;;;;;;;5096673;28;24426;-55
2021/12/24 10:54:51;;;;;;;2.90;2.70;;;;;;;;;;5089808;28;24403;-56
2021/12/24 10:57:18;;;;;;;2.63;2.47;;;;;;;;;;5088195;28;24516;-56
2021/12/24 10:59:44;;;;;;;2.80;2.60;;;;;;;;;;5097274;28;24404;-56
2021/12/24 11:02:10;;;;;;;3.60;2.70;;;;;;;;;;5082565;28;24529;-56
2021/12/24 11:04:36;;;;;;;3.00;2.70;;;;;;;;;;5083575;28;24539;-56
2021/12/24 11:07:01;;;;;;;2.90;2.70;;;;;;;;;;5094219;28;25031;-56
2021/12/24 11:09:26;;;;;;;3.00;2.80;;;;;;;;;;5094774;28;24448;-56
2021/12/24 11:11:55;;;;;;;2.90;2.70;;;;;;;;;;5095855;28;24877;-55
2021/12/24 11:14:20;;;;;;;3.33;3.03;;;;;;;;;;5095738;28;24800;-55
2021/12/24 11:16:45;;;;;;;2.75;2.55;;;;;;;;;;5096073;28;24418;-56
2021/12/24 11:19:10;;;;;;;2.90;2.60;;;;;;;;;;5096019;28;24414;-56
2021/12/24 11:21:35;;;;;;;2.80;2.60;;;;;;;;;;5093530;28;24463;-56
2021/12/24 11:24:01;;;;;;;2.83;2.63;;;;;;;;;;5097100;28;24428;-55
2021/12/24 11:26:27;;;;;;;2.70;2.50;;;;;;;;;;5091076;28;25001;-55
2021/12/24 11:28:53;;;;;;;2.80;2.60;;;;;;;;;;5097485;28;24451;-56
2021/12/24 11:31:22;;;;;;;2.60;2.40;;;;;;;;;;5101563;28;24821;-55
2021/12/24 11:33:48;;;;;;;3.08;2.88;;;;;;;;;;5099447;28;24566;-55
2021/12/24 11:36:15;;;;;;;3.05;2.85;;;;;;;;;;5096840;28;24958;-56
2021/12/24 11:38:41;;;;;;;3.33;3.03;;;;;;;;;;5096264;28;25248;-56
2021/12/24 11:41:11;;;;;;;2.90;2.70;;;;;;;;;;5099181;28;24463;-55
2021/12/24 11:43:37;;;;;;;2.90;2.70;;;;;;;;;;5096940;28;24414;-55
2021/12/24 11:46:04;;;;;;;3.22;3.03;;;;;;;;;;5094689;28;24954;-58
2021/12/24 11:48:32;;;;;;;3.00;2.80;;;;;;;;;;5095585;28;24470;-55
2021/12/24 11:51:01;;;;;;;3.00;2.80;;;;;;;;;;5098221;28;24444;-55
2021/12/24 11:53:27;;;;;;;3.50;3.20;;;;;;;;;;5093301;28;24437;-55
2021/12/24 11:55:52;;;;;;;3.70;2.70;;;;;;;;;;5098606;28;25001;-56
2021/12/24 11:58:19;;;;;;;3.13;2.90;;;;;;;;;;5095099;28;24494;-55
2021/12/24 12:00:45;;;;;;;3.60;3.30;;;;;;;;;;5082096;28;24490;-54
2021/12/24 12:03:28;;;;;;;3.40;3.10;;;;;;;;;;5096860;28;25033;-54
2021/12/24 12:05:53;;;;;;;3.13;2.92;;;;;;;;;;5095202;28;24433;-54
2021/12/24 12:08:25;;;;;;;2.70;2.50;;;;;;;;;;5097495;28;24480;-55
2021/12/24 12:10:54;;;;;;;3.20;2.90;;;;;;;;;;5095360;28;24421;-55
2021/12/24 12:13:35;;;;;;;2.92;2.55;;;;;;;;;;5095368;28;24959;-54
2021/12/24 12:16:00;;;;;;;3.30;3.00;;;;;;;;;;5084533;28;24422;-55
2021/12/24 12:18:29;;;;;;;3.10;2.90;;;;;;;;;;5096585;28;24421;-55
2021/12/24 12:21:07;;;;;;;3.15;2.95;;;;;;;;;;5096485;28;24451;-55
2021/12/24 12:23:51;;;;;;;3.60;3.30;;;;;;;;;;5096734;28;25024;-54
2021/12/24 12:26:32;;;;;;;3.20;2.90;;;;;;;;;;5094094;28;26553;-55
2021/12/24 12:29:15;;;;;;;3.40;3.10;;;;;;;;;;5100698;28;24421;-56
2021/12/24 12:31:40;;;;;;;2.85;2.65;;;;;;;;;;5102160;28;24437;-55
2021/12/24 12:34:24;;;;;;;3.20;3.00;;;;;;;;;;5094342;28;24421;-55
2021/12/24 12:36:50;;;;;;;3.10;2.80;;;;;;;;;;5094498;28;24418;-54
2021/12/24 12:39:25;;;;;;;3.10;2.70;;;;;;;;;;5096991;28;24730;-55
2021/12/24 12:41:51;;;;;;;3.30;3.00;;;;;;;;;;5102095;28;24421;-55
2021/12/24 12:44:16;;;;;;;4.03;2.95;;;;;;;;;;5097055;28;24425;-55
2021/12/24 12:46:42;;;;;;;3.33;3.03;;;;;;;;;;5095377;28;24475;-56
2021/12/24 12:49:09;;;;;;;3.20;2.90;;;;;;;;;;5103464;28;24517;-56
2021/12/24 12:51:53;;;;;;;3.60;3.00;;;;;;;;;;5090285;28;24479;-55
2021/12/24 12:54:36;;;;;;;3.22;3.00;;;;;;;;;;5096649;28;24776;-55
2021/12/24 12:57:22;;;;;;;3.35;3.05;;;;;;;;;;5102968;28;24475;-55
2021/12/24 13:00:05;;;;;;;3.72;3.40;;;;;;;;;;5093903;28;24497;-55
2021/12/24 13:02:49;;;;;;;3.75;2.70;;;;;;;;;;5094430;28;24810;-55
2021/12/24 13:05:14;;;;;;;3.20;3.00;;;;;;;;;;5086052;28;24517;-55
2021/12/24 13:07:39;;;;;;;3.80;3.40;;;;;;;;;;5104003;28;25432;-55
2021/12/24 13:10:05;;;;;;;4.00;3.10;;;;;;;;;;5099417;28;24409;-55
2021/12/24 13:12:30;;;;;;;3.50;3.20;;;;;;;;;;5100696;28;20780;-55
2021/12/24 13:14:58;;;;;;;3.60;3.30;;;;;;;;;;5098399;28;24417;-55
2021/12/24 13:18:06;;;;;;;3.40;3.20;;;;;;;;;;5089540;27;24989;-55
2021/12/24 13:20:55;;;;;;;3.40;3.10;;;;;;;;;;5091551;28;24524;-55
2021/12/24 13:23:19;;;;;;;3.53;3.22;;;;;;;;;;5100832;28;24443;-55
2021/12/24 13:25:44;;;;;;;3.28;2.97;;;;;;;;;;5099783;28;24444;-55
2021/12/24 13:28:10;;;;;;;4.00;3.10;;;;;;;;;;5097313;28;24981;-56
2021/12/24 13:30:35;;;;;;;3.95;3.25;;;;;;;;;;5096756;28;24551;-55
2021/12/24 13:33:06;;;;;;;3.70;3.40;;;;;;;;;;5100101;28;24496;-56
2021/12/24 13:35:38;;;;;;;3.47;3.17;;;;;;;;;;5099213;28;24437;-56
2021/12/24 13:38:03;;;;;;;4.00;3.60;;;;;;;;;;5090401;28;24530;-56
2021/12/24 13:40:31;;;;;;;3.57;3.27;;;;;;;;;;5100096;28;24835;-55
2021/12/24 13:42:57;;;;;;;4.05;3.50;;;;;;;;;;5094699;28;24821;-56
2021/12/24 13:45:23;;;;;;;3.92;3.53;;;;;;;;;;5098241;28;24413;-57
2021/12/24 13:55:31;;;;;;;4.83;3.47;;;;;;;;;;5101115;28;25183;-56
2021/12/24 13:57:58;;;;;;;3.70;3.30;;;;;;;;;;5098961;28;24447;-56
2021/12/24 14:00:24;;;;;;;3.50;3.20;;;;;;;;;;5092933;28;24428;-56
2021/12/24 14:02:53;;;;;;;3.60;3.30;;;;;;;;;;5091520;28;24434;-57
2021/12/24 14:05:19;;;;;;;4.60;3.40;;;;;;;;;;5101192;28;24449;-57
2021/12/24 14:07:46;;;;;;;5.60;3.60;;;;;;;;;;5099320;28;24452;-57
2021/12/24 14:10:21;;;;;;;3.50;3.20;;;;;;;;;;5100368;28;24413;-57
2021/12/24 14:12:46;;;;;;;3.60;3.30;;;;;;;;;;5100485;28;24798;-56
2021/12/24 14:15:14;;;;;;;4.20;3.80;;;;;;;;;;5103319;28;25196;-56
2021/12/24 14:18:05;;;;;;;4.32;3.10;;;;;;;;;;5102363;28;24393;-57
2021/12/24 14:23:19;;;;;;;4.40;4.00;;;;;;;;;;5063724;28;24424;-56
2021/12/24 14:25:54;;;;;;;3.50;3.20;;;;;;;;;;5096989;28;24418;-56
2021/12/24 14:28:22;;;;;;;4.25;3.60;;;;;;;;;;5102286;28;24589;-57
2021/12/24 14:30:47;;;;;;;3.83;3.53;;;;;;;;;;5098856;28;24422;-56
2021/12/24 14:33:12;;;;;;;4.40;4.10;;;;;;;;;;5098082;28;24470;-57
2021/12/24 14:35:43;;;;;;;3.92;3.63;;;;;;;;;;5099943;28;24409;-57
2021/12/24 14:38:14;;;;;;;4.40;4.00;;;;;;;;;;5101702;28;24418;-57
2021/12/24 14:40:40;;;;;;;4.25;3.60;;;;;;;;;;5102014;28;24418;-57
2021/12/24 14:43:12;;;;;;;4.00;3.70;;;;;;;;;;5104343;28;24463;-57
2021/12/24 14:45:39;;;;;;;3.78;3.40;;;;;;;;;;5101901;28;24496;-57
2021/12/24 14:48:13;;;;;;;5.30;4.15;;;;;;;;;;5098760;28;24982;-57
2021/12/24 14:50:58;;;;;;;4.60;4.20;;;;;;;;;;5096907;28;25023;-57
2021/12/24 14:53:28;;;;;;;4.50;4.10;;;;;;;;;;5085612;28;24438;-56
2021/12/24 14:56:15;;;;;;;4.60;4.00;;;;;;;;;;5104022;28;24560;-57
2021/12/24 14:58:45;;;;;;;4.50;4.10;;;;;;;;;;5101255;28;24720;-56
2021/12/24 15:01:10;;;;;;;5.18;4.68;;;;;;;;;;5099510;28;24410;-54
2021/12/24 15:03:39;;;;;;;5.57;5.07;;;;;;;;;;5097939;28;24436;-57
2021/12/24 15:06:17;;;;;;;5.25;4.03;;;;;;;;;;5101355;28;24459;-57
2021/12/24 15:08:43;;;;;;;5.65;5.15;;;;;;;;;;5103886;28;24390;-57
2021/12/24 15:11:13;;;;;;;5.35;4.75;;;;;;;;;;5103197;28;24436;-56
2021/12/24 15:13:40;;;;;;;5.78;5.20;;;;;;;;;;5100003;28;24405;-56
2021/12/24 15:16:06;;;;;;;5.60;4.80;;;;;;;;;;5099789;28;24487;-57
2021/12/24 15:18:31;;;;;;;5.57;4.93;;;;;;;;;;5099096;28;24463;-57
2021/12/24 15:20:57;;;;;;;4.83;4.43;;;;;;;;;;5103475;28;24485;-56
2021/12/24 15:23:22;;;;;;;5.43;4.83;;;;;;;;;;5102982;28;24437;-56
2021/12/24 15:25:47;;;;;;;5.60;5.10;;;;;;;;;;5100100;28;24749;-57
2021/12/24 15:28:15;;;;;;;6.10;5.50;;;;;;;;;;5091294;28;24433;-56
2021/12/24 15:30:40;;;;;;;5.90;5.30;;;;;;;;;;5096994;28;24507;-56
2021/12/24 15:33:06;;;;;;;5.80;5.20;;;;;;;;;;5100793;28;25233;-55
2021/12/24 15:35:32;;;;;;;6.25;5.65;;;;;;;;;;5100865;28;25116;-56
2021/12/24 15:37:58;;;;;;;5.70;5.10;;;;;;;;;;5103134;28;24510;-56
2021/12/24 15:40:23;;;;;;;5.65;5.15;;;;;;;;;;5099246;28;24408;-55
2021/12/24 15:42:49;;;;;;;6.07;5.20;;;;;;;;;;5097375;28;24998;-55
2021/12/24 15:45:14;;;;;;;5.82;5.32;;;;;;;;;;5102786;28;24410;-56
2021/12/24 15:47:39;;;;;;;5.50;5.00;;;;;;;;;;5100289;28;24429;-55
2021/12/24 15:50:05;;;;;;;8.27;5.70;;;;;;;;;;5103311;28;24957;-55
2021/12/24 15:52:30;;;;;;;6.30;5.70;;;;;;;;;;5097123;28;24418;-56
2021/12/24 15:54:55;;;;;;;5.75;5.20;;;;;;;;;;5098958;28;24556;-56
2021/12/24 15:57:20;;;;;;;6.20;5.60;;;;;;;;;;5098664;28;25172;-56
2021/12/24 15:59:45;;;;;;;5.60;5.00;;;;;;;;;;5101273;28;24476;-56
2021/12/24 16:02:11;;;;;;;6.00;5.40;;;;;;;;;;5102586;28;24463;-56
2021/12/24 16:04:36;;;;;;;6.68;6.07;;;;;;;;;;5102644;28;24409;-56
2021/12/24 16:07:02;;;;;;;6.95;5.25;;;;;;;;;;5102327;28;24798;-56
2021/12/24 16:09:27;;;;;;;6.75;5.50;;;;;;;;;;5105050;28;25581;-56
2021/12/24 16:11:53;;;;;;;5.90;5.30;;;;;;;;;;5106209;28;24433;-55
2021/12/24 16:14:20;;;;;;;5.50;5.00;;;;;;;;;;5105583;28;24536;-56
2021/12/24 16:16:45;;;;;;;5.68;5.07;;;;;;;;;;5103929;28;24389;-55
2021/12/24 16:19:11;;;;;;;6.60;5.88;;;;;;;;;;5100782;28;24458;-55